Time;durP1;ratioP1;P1;durP2;ratioP2;P2;SDS_P1;SDS_P2;PMS_P1;PMS_P2;Temp;Humidity;BMP_temperature;BMP_pressure;BME280_temperature;BME280_humidity;BME280_pressure;Samples;Min_cycle;Max_cycle;Signal;HPM_P1;HPM_P2
2022/09/22 00:01:16;;;;;;;;;2.33;2.33;;;;;21.74;48.27;101577.82;110437;1263;18971;-57
2022/09/22 00:03:44;;;;;;;;;1.33;1.33;;;;;21.72;48.31;101580.17;110487;1264;13107;-58
2022/09/22 00:06:12;;;;;;;;;2.00;2.00;;;;;21.71;48.34;101575.57;110463;1265;13268;-57
2022/09/22 00:08:39;;;;;;;;;3.00;2.00;;;;;21.72;48.25;101575.88;110478;1265;13249;-54
2022/09/22 00:11:07;;;;;;;;;2.67;2.67;;;;;21.71;48.17;101572.11;110502;1264;13175;-56
2022/09/22 00:13:35;;;;;;;;;3.00;2.00;;;;;21.70;48.17;101566.00;110477;1263;13219;-54
2022/09/22 00:16:02;;;;;;;;;3.00;2.33;;;;;21.71;48.18;101564.70;110510;1264;13161;-55
2022/09/22 00:18:29;;;;;;;;;5.33;4.33;;;;;21.69;48.16;101566.88;110513;1264;12742;-58
2022/09/22 00:20:56;;;;;;;;;1.00;1.00;;;;;21.69;48.03;101561.63;110435;1262;13352;-56
2022/09/22 00:23:24;;;;;;;;;2.00;2.00;;;;;21.69;48.09;101561.02;110473;1264;13118;-57
2022/09/22 00:25:51;;;;;;;;;2.00;2.00;;;;;21.68;48.01;101562.92;110463;1265;13303;-59
2022/09/22 00:28:19;;;;;;;;;2.00;2.00;;;;;21.68;48.03;101564.25;110484;1264;15973;-58
2022/09/22 00:30:46;;;;;;;;;2.00;2.00;;;;;21.68;47.99;101563.73;110540;1264;12500;-60
2022/09/22 00:33:13;;;;;;;;;2.67;2.00;;;;;21.67;47.95;101568.84;110471;1264;14456;-59
2022/09/22 00:35:41;;;;;;;;;2.00;2.00;;;;;21.66;47.96;101565.38;110469;1265;13018;-60
2022/09/22 00:38:10;;;;;;;;;2.00;2.00;;;;;21.67;47.90;101565.27;110472;1265;12850;-60
2022/09/22 00:40:38;;;;;;;;;2.00;2.00;;;;;21.68;47.84;101564.45;110497;1264;13392;-55
2022/09/22 00:43:05;;;;;;;;;2.00;2.00;;;;;21.68;47.88;101568.27;110494;1265;13072;-57
2022/09/22 00:45:33;;;;;;;;;2.00;2.00;;;;;21.66;47.82;101569.33;110502;1265;12997;-57
2022/09/22 00:48:00;;;;;;;;;2.00;2.00;;;;;21.66;47.83;101572.80;110474;1264;12832;-54
2022/09/22 00:53:11;;;;;;;;;2.00;2.00;;;;;21.66;47.68;101568.52;110459;1262;12684;-60
2022/09/22 00:55:38;;;;;;;;;2.00;2.00;;;;;21.65;47.70;101566.74;110443;1264;12836;-58
2022/09/22 00:58:05;;;;;;;;;2.00;2.00;;;;;21.65;47.63;101564.77;110462;1264;13062;-57
2022/09/22 01:00:32;;;;;;;;;2.00;2.00;;;;;21.65;47.62;101565.13;110426;1264;12844;-57
2022/09/22 01:03:00;;;;;;;;;2.00;2.00;;;;;21.65;47.62;101563.49;110463;1264;12959;-56
2022/09/22 01:05:27;;;;;;;;;2.00;2.00;;;;;21.65;47.60;101565.30;110358;1263;13279;-57
2022/09/22 01:07:54;;;;;;;;;3.00;2.33;;;;;21.65;47.64;101562.46;110412;1264;12750;-59
2022/09/22 01:10:22;;;;;;;;;2.00;2.00;;;;;21.66;47.58;101569.23;110443;1264;13444;-60
2022/09/22 01:12:50;;;;;;;;;3.00;3.00;;;;;21.65;47.47;101565.70;110489;1264;12986;-55
2022/09/22 01:15:18;;;;;;;;;2.00;2.00;;;;;21.65;47.50;101564.79;110456;1264;13155;-56
2022/09/22 01:17:45;;;;;;;;;2.00;2.00;;;;;21.65;47.46;101567.67;110475;1262;13307;-57
2022/09/22 01:20:14;;;;;;;;;2.00;2.00;;;;;21.65;47.52;101571.06;110464;1264;16225;-58
2022/09/22 01:22:41;;;;;;;;;2.00;2.00;;;;;21.66;47.47;101573.62;110452;1262;13533;-58
2022/09/22 01:25:08;;;;;;;;;2.67;2.67;;;;;21.65;47.47;101568.09;110440;1264;13313;-58
2022/09/22 01:27:35;;;;;;;;;2.00;2.00;;;;;21.65;47.55;101567.54;110496;1265;11953;-57
2022/09/22 01:30:03;;;;;;;;;2.00;2.00;;;;;21.64;47.49;101560.89;110491;1265;13269;-55
2022/09/22 01:32:30;;;;;;;;;2.00;2.00;;;;;21.62;47.40;101562.52;110473;1264;13016;-58
2022/09/22 01:34:57;;;;;;;;;2.00;2.00;;;;;21.62;47.48;101563.40;110481;1264;13094;-57
2022/09/22 01:37:24;;;;;;;;;2.00;2.00;;;;;21.63;47.46;101558.63;110468;1264;13067;-58
2022/09/22 01:39:51;;;;;;;;;2.67;2.67;;;;;21.64;47.41;101563.03;110488;1264;13119;-56
2022/09/22 01:42:19;;;;;;;;;2.00;2.00;;;;;21.63;47.43;101564.42;110465;1262;13172;-59
2022/09/22 01:44:46;;;;;;;;;3.00;3.00;;;;;21.63;47.39;101561.70;110487;1265;12763;-57
2022/09/22 01:47:13;;;;;;;;;1.67;1.67;;;;;21.62;47.38;101559.04;110466;1264;13156;-59
2022/09/22 01:49:40;;;;;;;;;2.00;2.00;;;;;21.62;47.40;101559.03;110469;1262;13024;-58
2022/09/22 01:52:08;;;;;;;;;2.00;2.00;;;;;21.63;47.36;101558.08;110469;1264;13024;-56
2022/09/22 01:54:35;;;;;;;;;1.67;1.67;;;;;21.62;47.39;101554.16;110494;1264;12262;-57
2022/09/22 01:57:02;;;;;;;;;3.00;2.00;;;;;21.62;47.31;101557.09;110467;1262;13342;-56
2022/09/22 01:59:29;;;;;;;;;2.00;2.00;;;;;21.63;47.30;101553.14;110458;1264;13455;-55
2022/09/22 02:01:57;;;;;;;;;2.00;2.00;;;;;21.61;47.34;101556.04;110453;1265;14379;-57
2022/09/22 02:04:24;;;;;;;;;2.00;2.00;;;;;21.62;47.29;101553.45;110486;1265;13132;-58
2022/09/22 02:06:51;;;;;;;;;3.00;2.00;;;;;21.63;47.31;101556.07;110476;1265;16169;-55
2022/09/22 02:09:19;;;;;;;;;2.00;2.00;;;;;21.63;47.29;101552.66;110388;1264;17924;-55
2022/09/22 02:11:46;;;;;;;;;2.67;2.00;;;;;21.61;47.32;101555.86;110452;1263;12847;-55
2022/09/22 02:14:14;;;;;;;;;2.00;2.00;;;;;21.62;47.30;101556.21;110464;1264;13081;-59
2022/09/22 02:16:41;;;;;;;;;2.00;2.00;;;;;21.61;47.22;101556.82;110484;1264;12874;-57
2022/09/22 02:19:09;;;;;;;;;1.00;1.00;;;;;21.60;47.22;101553.38;110504;1263;13274;-57
2022/09/22 02:21:36;;;;;;;;;1.50;1.50;;;;;21.61;47.24;101557.67;110498;1264;12578;-59
2022/09/22 02:24:03;;;;;;;;;2.67;2.00;;;;;21.61;47.24;101560.40;110460;1263;13370;-57
2022/09/22 02:26:30;;;;;;;;;2.00;2.00;;;;;21.60;47.27;101557.77;110461;1265;13755;-61
2022/09/22 02:28:59;;;;;;;;;2.00;2.00;;;;;21.61;47.18;101559.00;110483;1264;13189;-58
2022/09/22 02:31:27;;;;;;;;;2.00;2.00;;;;;21.61;47.18;101560.61;110475;1263;17826;-58
2022/09/22 02:33:54;;;;;;;;;1.67;1.67;;;;;21.61;47.19;101556.82;110522;1264;12413;-57
2022/09/22 02:36:22;;;;;;;;;2.00;2.00;;;;;21.59;47.15;101556.77;110461;1264;13145;-58
2022/09/22 02:38:49;;;;;;;;;1.33;1.33;;;;;21.59;47.13;101558.94;110476;1264;13162;-58
2022/09/22 02:41:16;;;;;;;;;2.00;2.00;;;;;21.60;47.07;101559.10;110473;1262;12695;-56
2022/09/22 02:43:44;;;;;;;;;1.00;1.00;;;;;21.59;47.15;101559.52;110447;1264;12468;-58
2022/09/22 02:46:12;;;;;;;;;2.00;2.00;;;;;21.61;47.09;101562.48;110492;1264;13104;-59
2022/09/22 02:48:39;;;;;;;;;1.67;1.67;;;;;21.60;47.08;101558.52;110485;1264;13023;-56
2022/09/22 02:51:06;;;;;;;;;2.50;2.00;;;;;21.59;47.09;101558.41;110450;1265;13219;-57
2022/09/22 02:53:34;;;;;;;;;2.00;2.00;;;;;21.59;47.03;101558.22;110459;1264;13200;-57
2022/09/22 02:56:01;;;;;;;;;2.00;2.00;;;;;21.58;47.09;101555.84;110436;1264;13435;-58
2022/09/22 02:58:28;;;;;;;;;2.00;2.00;;;;;21.58;47.00;101557.05;110473;1264;13215;-56
2022/09/22 03:00:55;;;;;;;;;2.00;2.00;;;;;21.58;47.05;101555.84;110502;1264;13118;-55
2022/09/22 03:03:23;;;;;;;;;2.00;2.00;;;;;21.58;46.99;101556.35;110454;1264;13688;-57
2022/09/22 03:05:50;;;;;;;;;2.00;2.00;;;;;21.58;46.96;101559.29;110476;1264;13607;-58
2022/09/22 03:08:17;;;;;;;;;1.00;1.00;;;;;21.58;46.97;101563.85;110495;1264;13101;-54
2022/09/22 03:10:45;;;;;;;;;2.33;2.00;;;;;21.58;46.99;101564.34;110470;1262;14981;-57
2022/09/22 03:13:12;;;;;;;;;2.00;2.00;;;;;21.56;47.01;101562.38;110468;1262;13319;-58
2022/09/22 03:15:39;;;;;;;;;2.00;2.00;;;;;21.56;46.95;101569.08;110508;1264;11745;-58
2022/09/22 03:18:06;;;;;;;;;2.33;1.67;;;;;21.57;46.96;101566.14;110461;1262;12071;-56
2022/09/22 03:20:34;;;;;;;;;2.00;1.67;;;;;21.57;46.88;101565.89;110457;1264;12565;-59
2022/09/22 03:23:01;;;;;;;;;1.67;1.67;;;;;21.56;46.88;101565.08;110410;1265;13054;-58
2022/09/22 03:25:28;;;;;;;;;3.00;2.00;;;;;21.57;46.96;101564.80;110447;1264;13278;-55
2022/09/22 03:27:56;;;;;;;;;2.50;2.50;;;;;21.58;46.87;101562.53;110510;1263;12249;-56
2022/09/22 03:30:23;;;;;;;;;4.33;2.00;;;;;21.58;46.90;101562.71;110434;1263;13188;-58
2022/09/22 03:32:50;;;;;;;;;5.00;3.00;;;;;21.57;46.79;101560.68;110452;1264;12860;-58
2022/09/22 03:35:17;;;;;;;;;2.00;2.00;;;;;21.56;46.77;101561.64;110465;1263;12623;-55
2022/09/22 03:37:45;;;;;;;;;2.67;2.00;;;;;21.57;46.79;101562.66;110475;1264;13147;-59
2022/09/22 03:40:12;;;;;;;;;1.67;1.67;;;;;21.57;46.78;101565.89;110437;1262;13909;-58
2022/09/22 03:42:39;;;;;;;;;3.00;2.00;;;;;21.58;46.68;101567.78;110382;1264;12909;-55
2022/09/22 03:45:06;;;;;;;;;2.00;2.00;;;;;21.59;46.71;101569.16;110346;1264;14528;-54
2022/09/22 03:47:34;;;;;;;;;2.67;2.67;;;;;21.60;46.66;101565.11;110401;1264;12973;-58
2022/09/22 03:50:01;;;;;;;;;3.00;3.00;;;;;21.59;46.73;101567.90;110488;1264;13637;-60
2022/09/22 03:52:29;;;;;;;;;2.00;2.00;;;;;21.59;46.73;101565.37;110409;1264;14244;-57
2022/09/22 03:54:56;;;;;;;;;2.50;2.50;;;;;21.59;46.78;101561.55;110494;1265;12728;-58
2022/09/22 03:57:23;;;;;;;;;2.00;2.00;;;;;21.58;46.88;101558.33;110448;1262;13133;-60
2022/09/22 03:59:51;;;;;;;;;2.00;2.00;;;;;21.58;46.85;101557.95;110463;1264;14080;-58
2022/09/22 04:02:18;;;;;;;;;1.67;1.67;;;;;21.58;46.94;101557.64;110443;1265;13922;-59
2022/09/22 04:04:45;;;;;;;;;2.00;2.00;;;;;21.58;46.84;101558.75;110460;1264;14789;-57
2022/09/22 04:07:12;;;;;;;;;3.00;2.00;;;;;21.58;46.83;101557.48;110466;1265;13888;-57
2022/09/22 04:09:40;;;;;;;;;2.00;2.00;;;;;21.57;46.85;101555.18;110520;1264;12472;-52
2022/09/22 04:12:08;;;;;;;;;2.00;2.00;;;;;21.57;46.79;101553.86;110445;1264;14538;-59
2022/09/22 04:14:35;;;;;;;;;1.33;1.33;;;;;21.58;46.82;101552.75;110546;1262;12090;-57
2022/09/22 04:17:03;;;;;;;;;2.00;2.00;;;;;21.58;46.85;101552.89;110468;1262;13439;-59
2022/09/22 04:19:31;;;;;;;;;2.00;2.00;;;;;21.58;46.82;101554.01;110473;1264;13024;-58
2022/09/22 04:21:59;;;;;;;;;3.00;2.00;;;;;21.57;46.82;101553.55;110496;1264;13016;-58
2022/09/22 04:24:26;;;;;;;;;3.00;2.67;;;;;21.57;46.97;101558.06;110441;1264;12993;-56
2022/09/22 04:26:53;;;;;;;;;3.00;2.33;;;;;21.57;46.93;101556.95;110429;1264;13249;-58
2022/09/22 04:29:20;;;;;;;;;3.00;3.00;;;;;21.58;46.94;101560.18;110411;1264;13411;-58
2022/09/22 04:31:48;;;;;;;;;2.00;2.00;;;;;21.57;46.96;101555.94;110436;1264;13506;-58
2022/09/22 04:34:15;;;;;;;;;1.00;1.00;;;;;21.58;46.97;101557.48;110464;1264;12783;-54
2022/09/22 04:36:42;;;;;;;;;3.67;2.67;;;;;21.57;46.94;101563.35;110501;1264;13390;-56
2022/09/22 04:39:09;;;;;;;;;3.00;2.00;;;;;21.56;46.88;101569.48;110448;1262;13053;-58
2022/09/22 04:41:37;;;;;;;;;3.00;2.00;;;;;21.57;46.91;101575.40;110448;1264;13160;-58
2022/09/22 04:44:04;;;;;;;;;2.67;2.67;;;;;21.57;46.96;101573.23;110425;1262;13396;-59
2022/09/22 04:46:32;;;;;;;;;3.00;2.00;;;;;21.56;46.97;101572.77;110385;1262;13162;-53
2022/09/22 04:48:59;;;;;;;;;2.00;2.00;;;;;21.55;46.94;101576.12;110439;1264;12604;-54
2022/09/22 04:51:26;;;;;;;;;2.00;2.00;;;;;21.55;46.96;101576.49;110413;1264;22030;-57
2022/09/22 04:53:53;;;;;;;;;2.00;2.00;;;;;21.55;46.86;101572.55;110431;1264;12799;-57
2022/09/22 04:56:21;;;;;;;;;2.00;2.00;;;;;21.55;46.91;101570.49;110400;1264;13160;-54
2022/09/22 04:58:48;;;;;;;;;2.00;2.00;;;;;21.56;46.88;101570.09;110410;1264;13147;-56
2022/09/22 05:01:15;;;;;;;;;2.00;2.00;;;;;21.61;47.66;101567.39;110441;1264;18251;-56
2022/09/22 05:03:43;;;;;;;;;2.00;2.00;;;;;21.64;48.08;101563.98;110476;1264;12740;-57
2022/09/22 05:06:10;;;;;;;;;2.00;2.00;;;;;21.65;48.43;101562.81;110381;1262;13394;-58
2022/09/22 05:08:37;;;;;;;;;3.00;3.00;;;;;21.66;48.52;101564.08;110424;1263;16541;-57
2022/09/22 05:11:08;;;;;;;;;2.00;2.00;;;;;21.69;48.39;101564.33;110444;1262;14858;-55
2022/09/22 05:13:37;;;;;;;;;2.00;2.00;;;;;21.70;48.52;101568.79;110459;1262;13068;-59
2022/09/22 05:16:05;;;;;;;;;2.00;2.00;;;;;21.66;49.01;101563.23;110460;1264;12918;-61
2022/09/22 05:18:33;;;;;;;;;2.00;2.00;;;;;21.67;49.21;101567.12;110413;1263;13249;-55
2022/09/22 05:21:00;;;;;;;;;1.67;1.67;;;;;21.66;49.46;101567.90;110384;1264;12567;-56
2022/09/22 05:23:27;;;;;;;;;2.00;2.00;;;;;21.70;49.73;101568.64;110421;1264;13000;-57
2022/09/22 05:25:55;;;;;;;;;2.00;2.00;;;;;21.78;50.01;101572.66;110440;1264;12680;-57
2022/09/22 05:28:23;;;;;;;;;2.00;2.00;;;;;21.80;50.01;101576.11;110442;1263;13121;-61
2022/09/22 05:30:50;;;;;;;;;3.00;2.00;;;;;21.83;50.04;101579.77;110480;1264;13194;-58
2022/09/22 05:33:18;;;;;;;;;2.00;2.00;;;;;21.82;50.25;101580.17;110474;1264;13030;-59
2022/09/22 05:35:45;;;;;;;;;1.67;1.67;;;;;21.79;50.34;101582.01;110386;1264;13171;-60
2022/09/22 05:38:12;;;;;;;;;2.00;2.00;;;;;21.78;50.46;101585.86;110440;1263;12832;-58
2022/09/22 05:40:39;;;;;;;;;1.50;1.50;;;;;21.78;50.55;101589.58;110432;1264;12945;-59
2022/09/22 05:43:07;;;;;;;;;3.00;2.00;;;;;21.76;50.41;101588.30;110489;1264;12885;-58
2022/09/22 05:45:34;;;;;;;;;2.67;2.67;;;;;21.74;50.09;101594.16;110386;1264;12640;-59
2022/09/22 05:48:01;;;;;;;;;2.00;2.00;;;;;21.71;50.07;101595.02;110454;1263;17595;-58
2022/09/22 05:50:28;;;;;;;;;2.00;2.00;;;;;21.70;50.14;101592.05;110440;1262;17021;-60
2022/09/22 05:52:56;;;;;;;;;1.00;1.00;;;;;21.70;50.01;101597.89;110481;1264;13240;-58
2022/09/22 05:55:23;;;;;;;;;2.00;2.00;;;;;21.70;49.81;101596.59;110481;1262;13351;-61
2022/09/22 05:57:50;;;;;;;;;2.00;2.00;;;;;21.71;49.65;101595.92;110493;1262;12610;-59
2022/09/22 06:00:17;;;;;;;;;2.33;2.00;;;;;21.72;49.62;101598.69;110412;1264;14052;-60
2022/09/22 06:02:45;;;;;;;;;2.00;2.00;;;;;21.74;49.83;101604.18;110439;1264;14507;-61
2022/09/22 06:05:12;;;;;;;;;2.33;2.33;;;;;21.71;49.74;101601.96;110411;1264;14531;-57
2022/09/22 06:07:39;;;;;;;;;3.00;3.00;;;;;21.72;49.59;101602.99;110423;1264;14453;-58
2022/09/22 06:10:10;;;;;;;;;2.00;2.00;;;;;21.74;49.45;101598.36;110436;1263;16613;-58
2022/09/22 06:12:37;;;;;;;;;3.00;3.00;;;;;21.81;49.43;101593.06;110465;1264;12829;-57
2022/09/22 06:15:05;;;;;;;;;2.00;2.00;;;;;21.87;49.39;101596.82;110429;1265;14436;-59
2022/09/22 06:17:32;;;;;;;;;3.00;2.00;;;;;21.96;49.30;101593.24;110441;1265;14923;-60
2022/09/22 06:19:59;;;;;;;;;2.33;2.33;;;;;22.03;49.32;101592.69;110462;1264;13551;-61
2022/09/22 06:22:26;;;;;;;;;2.33;2.33;;;;;22.05;49.11;101597.02;110457;1264;17851;-58
2022/09/22 06:24:54;;;;;;;;;2.00;2.00;;;;;22.03;49.12;101598.87;110492;1265;12737;-60
2022/09/22 06:27:21;;;;;;;;;2.00;2.00;;;;;21.98;49.18;101598.51;110437;1265;14271;-59
2022/09/22 06:29:48;;;;;;;;;2.00;2.00;;;;;21.93;49.26;101598.17;110412;1264;14443;-60
2022/09/22 06:32:16;;;;;;;;;2.00;2.00;;;;;21.88;49.30;101594.82;110340;1264;14855;-58
2022/09/22 06:34:46;;;;;;;;;2.00;2.00;;;;;21.87;49.45;101592.79;110424;1264;13711;-60
2022/09/22 06:37:14;;;;;;;;;2.00;2.00;;;;;21.89;49.45;101596.80;110423;1264;12797;-58
2022/09/22 06:39:41;;;;;;;;;1.00;1.00;;;;;21.92;49.51;101590.77;110451;1264;12789;-59
2022/09/22 06:42:09;;;;;;;;;2.00;2.00;;;;;21.99;49.52;101595.51;110406;1263;12857;-56
2022/09/22 06:44:37;;;;;;;;;2.00;2.00;;;;;22.03;49.42;101592.35;110402;1262;14427;-59
2022/09/22 06:47:05;;;;;;;;;2.67;2.00;;;;;22.04;49.50;101596.20;110343;1264;13115;-57
2022/09/22 06:49:32;;;;;;;;;3.00;3.00;;;;;22.14;49.84;101602.79;110446;1262;12976;-58
2022/09/22 06:51:59;;;;;;;;;2.00;2.00;;;;;22.24;49.87;101602.42;110374;1265;13259;-60
2022/09/22 06:54:27;;;;;;;;;2.00;2.00;;;;;22.32;49.99;101602.85;110445;1264;13648;-59
2022/09/22 06:56:54;;;;;;;;;2.00;2.00;;;;;22.37;49.63;101601.60;110399;1264;13423;-59
2022/09/22 06:59:21;;;;;;;;;5.00;4.33;;;;;22.34;49.29;101602.82;110436;1264;13058;-58
2022/09/22 07:01:49;;;;;;;;;3.00;3.00;;;;;22.35;49.10;101604.55;110434;1263;12673;-57
2022/09/22 07:04:16;;;;;;;;;3.00;3.00;;;;;22.38;48.81;101602.74;110442;1262;13560;-57
2022/09/22 07:06:44;;;;;;;;;2.00;2.00;;;;;22.41;48.53;101603.33;110484;1264;17942;-57
2022/09/22 07:09:11;;;;;;;;;6.00;5.00;;;;;22.42;48.29;101605.20;110410;1262;14109;-57
2022/09/22 07:11:39;;;;;;;;;2.00;2.00;;;;;22.38;48.13;101604.92;110403;1265;14244;-58
2022/09/22 07:14:07;;;;;;;;;2.00;2.00;;;;;22.37;47.86;101603.39;110437;1264;14207;-59
2022/09/22 07:16:34;;;;;;;;;3.00;3.00;;;;;22.38;47.70;101604.71;110437;1264;12963;-59
2022/09/22 07:19:02;;;;;;;;;3.00;3.00;;;;;22.37;47.42;101606.83;110452;1264;12090;-61
2022/09/22 07:21:31;;;;;;;;;3.00;3.00;;;;;22.33;47.25;101605.45;110404;1262;12846;-59
2022/09/22 07:23:59;;;;;;;;;2.67;2.00;;;;;22.24;47.31;101605.52;110453;1264;13702;-57
2022/09/22 07:26:27;;;;;;;;;2.00;2.00;;;;;22.19;47.50;101605.98;110326;1264;12886;-61
2022/09/22 07:28:55;;;;;;;;;4.33;3.00;;;;;22.11;47.63;101612.00;110481;1262;13306;-58
2022/09/22 07:31:22;;;;;;;;;3.00;2.33;;;;;22.09;47.63;101612.93;110443;1263;13168;-60
2022/09/22 07:33:49;;;;;;;;;3.67;3.00;;;;;22.10;47.55;101611.40;110475;1264;13141;-56
2022/09/22 07:36:17;;;;;;;;;3.00;3.00;;;;;22.37;46.78;101608.46;110360;1264;154697;-58
2022/09/22 07:38:45;;;;;;;;;5.00;3.00;;;;;22.54;46.42;101602.14;110431;1264;13765;-57
2022/09/22 07:41:12;;;;;;;;;2.33;2.00;;;;;22.53;46.30;101603.83;110422;1262;13784;-58
2022/09/22 07:43:40;;;;;;;;;3.00;2.67;;;;;22.48;46.39;101602.82;110452;1264;14268;-56
2022/09/22 07:46:07;;;;;;;;;3.00;3.00;;;;;22.39;46.37;101607.55;110521;1265;12229;-58
2022/09/22 07:48:41;;;;;;;;;3.00;3.00;;;;;22.30;46.46;101611.25;110272;1263;15760;-59
2022/09/22 07:51:08;;;;;;;;;5.00;3.00;;;;;22.21;46.69;101611.86;110431;1265;13423;-58
2022/09/22 07:53:36;;;;;;;;;3.67;3.00;;;;;22.10;46.80;101611.95;110401;1264;14068;-60
2022/09/22 07:56:03;;;;;;;;;4.33;3.00;;;;;22.02;46.93;101613.88;110427;1264;13437;-58
2022/09/22 07:58:31;;;;;;;;;3.00;3.00;;;;;21.96;47.02;101613.41;110356;1264;12676;-59
2022/09/22 08:00:58;;;;;;;;;4.33;4.33;;;;;21.93;47.04;101609.58;112269;1264;12869;-58
2022/09/22 08:03:25;;;;;;;;;5.00;3.00;;;;;21.91;47.03;101606.05;110888;1263;17572;-59
2022/09/22 08:05:52;;;;;;;;;3.00;3.00;;;;;21.91;47.01;101608.61;110362;1263;13737;-57
2022/09/22 08:08:20;;;;;;;;;3.00;3.00;;;;;21.87;46.94;101606.38;110379;1263;12702;-59
2022/09/22 08:10:47;;;;;;;;;3.00;3.00;;;;;21.86;46.77;101611.01;112107;1264;12550;-60
2022/09/22 08:13:15;;;;;;;;;3.00;3.00;;;;;21.83;46.74;101613.92;110325;1263;13680;-60
2022/09/22 08:15:43;;;;;;;;;3.00;3.00;;;;;21.76;46.80;101612.09;110468;1264;13035;-60
2022/09/22 08:18:11;;;;;;;;;2.33;2.33;;;;;21.68;46.77;101610.44;110384;1264;13491;-57
2022/09/22 08:20:38;;;;;;;;;3.67;3.00;;;;;21.58;46.66;101611.50;110447;1264;13854;-56
2022/09/22 08:23:05;;;;;;;;;4.33;4.33;;;;;21.10;47.07;101609.92;110314;1262;13926;-58
2022/09/22 08:25:33;;;;;;;;;6.33;5.67;;;;;20.73;47.95;101614.79;110332;1265;13072;-57
2022/09/22 08:28:01;;;;;;;;;5.00;5.00;;;;;20.71;48.18;101619.91;110478;1263;12513;-56
2022/09/22 08:30:28;;;;;;;;;5.33;5.33;;;;;20.64;48.07;101616.41;110396;1263;12995;-59
2022/09/22 08:32:58;;;;;;;;;5.00;5.00;;;;;20.57;48.31;101616.05;110409;1264;13254;-55
2022/09/22 08:35:26;;;;;;;;;7.00;5.67;;;;;20.64;48.21;101616.83;110498;1263;13021;-57
2022/09/22 08:37:53;;;;;;;;;7.00;5.00;;;;;20.59;48.41;101620.23;110429;1263;13170;-57
2022/09/22 08:40:22;;;;;;;;;5.67;4.67;;;;;20.67;48.37;101614.39;110402;1264;13459;-57
2022/09/22 08:42:52;;;;;;;;;5.00;5.00;;;;;20.68;48.38;101620.45;110465;1264;12731;-56
2022/09/22 08:45:21;;;;;;;;;5.00;5.00;;;;;20.79;48.29;101622.77;110391;1264;13964;-58
2022/09/22 08:53:18;;;;;;;;;5.00;5.00;;;;;20.43;48.85;101618.54;110453;1263;13807;-58
2022/09/22 08:55:45;;;;;;;;;5.33;5.00;;;;;20.56;48.76;101614.92;110432;1264;13581;-59
2022/09/22 08:58:13;;;;;;;;;5.00;5.00;;;;;20.72;48.48;101615.97;110482;1264;13346;-60
2022/09/22 09:00:40;;;;;;;;;4.33;4.33;;;;;20.87;48.23;101616.15;110489;1263;13089;-59
2022/09/22 09:03:08;;;;;;;;;5.00;4.00;;;;;20.96;48.01;101614.98;110434;1262;13902;-59
2022/09/22 09:05:37;;;;;;;;;5.33;5.33;;;;;20.92;47.95;101610.88;110475;1262;13498;-58
2022/09/22 09:08:05;;;;;;;;;5.33;5.00;;;;;20.80;48.13;101612.33;110447;1262;18091;-59
2022/09/22 09:10:33;;;;;;;;;4.00;4.00;;;;;20.83;48.23;101614.88;110443;1263;14563;-59
2022/09/22 09:13:01;;;;;;;;;4.00;4.00;;;;;20.91;48.20;101606.95;110481;1264;12310;-58
2022/09/22 09:15:28;;;;;;;;;4.00;4.00;;;;;20.80;48.36;101608.48;110398;1262;12942;-59
2022/09/22 09:17:55;;;;;;;;;4.00;4.00;;;;;20.85;48.34;101608.56;110384;1264;12924;-55
2022/09/22 09:20:22;;;;;;;;;5.00;4.00;;;;;20.90;48.29;101606.70;110346;1264;13896;-57
2022/09/22 09:22:50;;;;;;;;;8.00;6.00;;;;;21.00;48.21;101603.65;110404;1264;13564;-56
2022/09/22 09:25:17;;;;;;;;;4.67;4.67;;;;;21.19;48.06;101605.23;110440;1264;13592;-61
2022/09/22 09:27:45;;;;;;;;;3.00;3.00;;;;;21.34;47.88;101601.63;110482;1264;12633;-59
2022/09/22 09:30:16;;;;;;;;;3.00;3.00;;;;;21.42;47.77;101602.05;110463;1264;13173;-58
2022/09/22 09:32:43;;;;;;;;;2.00;2.00;;;;;21.47;47.67;101596.81;110391;1264;13448;-60
2022/09/22 09:35:11;;;;;;;;;3.00;3.00;;;;;21.50;47.69;101598.66;110427;1265;13005;-59
2022/09/22 09:37:38;;;;;;;;;3.00;3.00;;;;;21.51;47.77;101596.20;110423;1264;13384;-58
2022/09/22 09:40:05;;;;;;;;;2.00;2.00;;;;;21.53;47.83;101597.30;110445;1264;15882;-60
2022/09/22 09:42:33;;;;;;;;;2.33;2.33;;;;;21.56;47.83;101592.80;110422;1262;14039;-61
2022/09/22 09:45:01;;;;;;;;;2.50;2.00;;;;;21.58;47.94;101592.05;110422;1263;13523;-60
2022/09/22 09:47:29;;;;;;;;;3.33;2.33;;;;;21.59;48.01;101595.14;110411;1265;13439;-58
2022/09/22 09:49:56;;;;;;;;;2.00;2.00;;;;;21.60;48.02;101594.91;110389;1264;12475;-57
2022/09/22 09:52:24;;;;;;;;;2.00;2.00;;;;;21.62;48.06;101592.93;110294;1264;13653;-57
2022/09/22 09:54:51;;;;;;;;;2.00;2.00;;;;;21.64;48.07;101596.55;110434;1264;13184;-59
2022/09/22 09:57:19;;;;;;;;;1.00;1.00;;;;;21.65;48.04;101592.55;110402;1264;13013;-58
2022/09/22 10:02:31;;;;;;;;;2.00;2.00;;;;;21.72;48.04;101592.07;110447;1264;13158;-60
2022/09/22 10:04:59;;;;;;;;;1.33;1.33;;;;;21.72;48.13;101595.45;110469;1262;12841;-57
2022/09/22 10:07:27;;;;;;;;;2.00;2.00;;;;;21.74;48.13;101592.52;110442;1264;12983;-59
2022/09/22 10:09:54;;;;;;;;;1.33;1.33;;;;;21.74;48.25;101595.97;110467;1264;13173;-59
2022/09/22 10:12:22;;;;;;;;;2.00;2.00;;;;;21.73;48.26;101595.48;110467;1264;13608;-58
2022/09/22 10:14:50;;;;;;;;;1.00;1.00;;;;;21.75;48.32;101592.05;110398;1264;13083;-60
2022/09/22 10:17:17;;;;;;;;;1.00;1.00;;;;;21.75;48.42;101593.99;110452;1262;14081;-61
2022/09/22 10:19:44;;;;;;;;;1.00;1.00;;;;;21.74;48.51;101588.90;110355;1264;14461;-60
2022/09/22 10:22:11;;;;;;;;;1.67;1.67;;;;;21.72;48.70;101591.66;110479;1265;11975;-59
2022/09/22 10:24:39;;;;;;;;;2.00;2.00;;;;;21.72;48.75;101593.61;110359;1262;14422;-57
2022/09/22 10:27:06;;;;;;;;;2.00;2.00;;;;;21.78;48.83;101590.09;110411;1264;14449;-60
2022/09/22 10:29:34;;;;;;;;;1.00;1.00;;;;;21.79;48.91;101589.30;110305;1263;14402;-53
2022/09/22 10:32:02;;;;;;;;;1.00;1.00;;;;;21.79;49.07;101592.30;110428;1263;13163;-57
2022/09/22 10:34:30;;;;;;;;;1.00;1.00;;;;;21.79;49.20;101590.54;110391;1264;13297;-56
2022/09/22 10:36:57;;;;;;;;;2.00;2.00;;;;;21.79;49.35;101585.96;110462;1264;12897;-58
2022/09/22 10:39:24;;;;;;;;;3.00;2.00;;;;;21.80;49.47;101588.79;110419;1265;13810;-57
2022/09/22 10:41:52;;;;;;;;;1.00;1.00;;;;;21.80;49.59;101585.83;110448;1264;13743;-56
2022/09/22 10:44:19;;;;;;;;;2.00;2.00;;;;;21.81;49.71;101586.16;110364;1264;14015;-59
2022/09/22 10:46:48;;;;;;;;;2.00;2.00;;;;;21.86;49.86;101582.31;110445;1264;13939;-57
2022/09/22 10:49:16;;;;;;;;;1.00;1.00;;;;;21.94;50.03;101581.15;110445;1264;17656;-57
2022/09/22 10:51:43;;;;;;;;;1.67;1.67;;;;;22.03;50.18;101579.61;110452;1264;12641;-58
2022/09/22 10:54:10;;;;;;;;;2.00;2.00;;;;;22.02;50.32;101579.28;110423;1264;14086;-54
2022/09/22 10:56:37;;;;;;;;;1.00;1.00;;;;;22.04;50.66;101578.90;110432;1265;13706;-56
2022/09/22 10:59:05;;;;;;;;;1.00;1.00;;;;;22.04;50.81;101578.48;110437;1264;14207;-58
2022/09/22 11:01:32;;;;;;;;;1.00;1.00;;;;;22.04;50.82;101574.73;110429;1263;14521;-58
2022/09/22 11:03:59;;;;;;;;;2.00;2.00;;;;;22.00;50.84;101570.02;110438;1265;12675;-59
2022/09/22 11:14:41;;;;;;;;;5.00;3.00;;;;;21.80;49.13;101562.95;110430;1264;13813;-58
2022/09/22 11:17:09;;;;;;;;;2.00;2.00;;;;;21.73;47.93;101561.34;110229;1264;14903;-57
2022/09/22 11:19:36;;;;;;;;;3.00;3.00;;;;;21.60;47.21;101557.12;110347;1264;14965;-57
2022/09/22 11:22:04;;;;;;;;;2.00;2.00;;;;;21.52;46.63;101560.86;110383;1264;12149;-57
2022/09/22 11:24:31;;;;;;;;;3.00;3.00;;;;;21.49;46.17;101563.88;110346;1262;14169;-57
2022/09/22 11:26:58;;;;;;;;;2.67;2.67;;;;;21.44;45.84;101556.27;110272;1265;12595;-57
2022/09/22 11:29:25;;;;;;;;;3.00;3.00;;;;;21.40;45.26;101556.30;110334;1264;14580;-59
2022/09/22 11:31:53;;;;;;;;;2.33;2.33;;;;;21.37;45.21;101552.29;110272;1265;14180;-57
2022/09/22 11:34:20;;;;;;;;;3.00;2.33;;;;;21.37;44.74;101554.06;110493;1264;13609;-57
2022/09/22 11:36:47;;;;;;;;;3.00;2.50;;;;;21.34;44.33;101553.86;110498;1264;12891;-57